sensor_id;sensor_type;location;lat;lon;timestamp;pressure;altitude;pressure_sealevel;temperature;humidity
62126;BME280;48112;53.282;6.150;2023-04-05T00:00:16;102773.19;;;16.36;46.32
62126;BME280;48112;53.282;6.150;2023-04-05T00:01:20;102766.13;;;16.35;46.33
62126;BME280;48112;53.282;6.150;2023-04-05T00:02:22;102768.06;;;16.34;46.38
62126;BME280;48112;53.282;6.150;2023-04-05T00:03:30;102766.13;;;16.35;46.68
62126;BME280;48112;53.282;6.150;2023-04-05T00:04:31;102765.34;;;16.34;46.32
62126;BME280;48112;53.282;6.150;2023-04-05T00:05:35;102765.34;;;16.34;46.46
62126;BME280;48112;53.282;6.150;2023-04-05T00:06:37;102767.25;;;16.34;46.58
62126;BME280;48112;53.282;6.150;2023-04-05T00:07:45;102761.81;;;16.34;46.57
62126;BME280;48112;53.282;6.150;2023-04-05T00:08:48;102763.72;;;16.33;46.32
62126;BME280;48112;53.282;6.150;2023-04-05T00:09:51;102767.25;;;16.34;46.51
62126;BME280;48112;53.282;6.150;2023-04-05T00:10:53;102767.25;;;16.34;46.38
62126;BME280;48112;53.282;6.150;2023-04-05T00:11:56;102768.41;;;16.33;46.39
62126;BME280;48112;53.282;6.150;2023-04-05T00:12:58;102763.72;;;16.33;46.30
62126;BME280;48112;53.282;6.150;2023-04-05T00:14:01;102774.19;;;16.31;46.50
62126;BME280;48112;53.282;6.150;2023-04-05T00:15:03;102762.16;;;16.32;46.23
62126;BME280;48112;53.282;6.150;2023-04-05T00:16:06;102760.22;;;16.33;46.28
62126;BME280;48112;53.282;6.150;2023-04-05T00:17:08;102761.34;;;16.32;46.31
62126;BME280;48112;53.282;6.150;2023-04-05T00:18:12;102755.88;;;16.32;46.31
62126;BME280;48112;53.282;6.150;2023-04-05T00:19:22;102759.41;;;16.32;46.52
62126;BME280;48112;53.282;6.150;2023-04-05T00:20:24;102757.84;;;16.31;46.57
62126;BME280;48112;53.282;6.150;2023-04-05T00:21:26;102756.22;;;16.30;46.63
62126;BME280;48112;53.282;6.150;2023-04-05T00:22:28;102753.50;;;16.30;46.52
62126;BME280;48112;53.282;6.150;2023-04-05T00:23:33;102757.03;;;16.31;46.31
62126;BME280;48112;53.282;6.150;2023-04-05T00:24:39;102750.75;;;16.30;46.49
62126;BME280;48112;53.282;6.150;2023-04-05T00:25:43;102756.22;;;16.30;46.58
62126;BME280;48112;53.282;6.150;2023-04-05T00:26:46;102760.56;;;16.31;46.43
62126;BME280;48112;53.282;6.150;2023-04-05T00:27:48;102761.66;;;16.30;46.46
62126;BME280;48112;53.282;6.150;2023-04-05T00:28:51;102751.09;;;16.29;46.40
62126;BME280;48112;53.282;6.150;2023-04-05T00:29:53;102748.38;;;16.29;46.26
62126;BME280;48112;53.282;6.150;2023-04-05T00:30:56;102754.63;;;16.29;46.31
62126;BME280;48112;53.282;6.150;2023-04-05T00:31:57;102745.66;;;16.29;46.58
62126;BME280;48112;53.282;6.150;2023-04-05T00:33:00;102747.56;;;16.28;46.27
62126;BME280;48112;53.282;6.150;2023-04-05T00:34:02;102751.09;;;16.29;46.21
62126;BME280;48112;53.282;6.150;2023-04-05T00:35:06;102755.75;;;16.28;46.29
62126;BME280;48112;53.282;6.150;2023-04-05T00:36:08;102751.91;;;16.29;46.16
62126;BME280;48112;53.282;6.150;2023-04-05T00:37:14;102747.56;;;16.28;46.49
62126;BME280;48112;53.282;6.150;2023-04-05T00:38:17;102748.72;;;16.27;46.42
62126;BME280;48112;53.282;6.150;2023-04-05T00:39:20;102744.06;;;16.28;46.23
62126;BME280;48112;53.282;6.150;2023-04-05T00:40:22;102745.97;;;16.27;46.43
62126;BME280;48112;53.282;6.150;2023-04-05T00:41:24;102752.25;;;16.28;46.40
62126;BME280;48112;53.282;6.150;2023-04-05T00:42:27;102747.56;;;16.28;46.27
62126;BME280;48112;53.282;6.150;2023-04-05T00:43:28;102745.97;;;16.27;46.30
62126;BME280;48112;53.282;6.150;2023-04-05T00:44:31;102745.97;;;16.27;46.22
62126;BME280;48112;53.282;6.150;2023-04-05T00:45:35;102733.50;;;16.26;46.24
62126;BME280;48112;53.282;6.150;2023-04-05T00:46:37;102742.44;;;16.27;46.31
62126;BME280;48112;53.282;6.150;2023-04-05T00:47:39;102745.19;;;16.27;46.26
62126;BME280;48112;53.282;6.150;2023-04-05T00:48:42;102744.41;;;16.26;46.51
62126;BME280;48112;53.282;6.150;2023-04-05T00:49:44;102740.06;;;16.25;46.28
62126;BME280;48112;53.282;6.150;2023-04-05T00:50:48;102745.50;;;16.25;46.23
62126;BME280;48112;53.282;6.150;2023-04-05T00:51:49;102741.66;;;16.26;46.25
62126;BME280;48112;53.282;6.150;2023-04-05T00:52:52;102734.59;;;16.25;46.41
62126;BME280;48112;53.282;6.150;2023-04-05T00:53:54;102739.28;;;16.25;46.28
62126;BME280;48112;53.282;6.150;2023-04-05T00:54:59;102749.03;;;16.26;46.34
62126;BME280;48112;53.282;6.150;2023-04-05T00:56:01;102748.22;;;16.25;46.45
62126;BME280;48112;53.282;6.150;2023-04-05T00:57:04;102750.97;;;16.25;46.23
62126;BME280;48112;53.282;6.150;2023-04-05T00:58:07;102752.09;;;16.24;46.34
62126;BME280;48112;53.282;6.150;2023-04-05T00:59:10;102752.09;;;16.24;46.47
62126;BME280;48112;53.282;6.150;2023-04-05T01:00:13;102754.81;;;16.24;46.53
62126;BME280;48112;53.282;6.150;2023-04-05T01:01:16;102750.50;;;16.23;46.46
62126;BME280;48112;53.282;6.150;2023-04-05T01:02:21;102745.84;;;16.24;46.23
62126;BME280;48112;53.282;6.150;2023-04-05T01:03:26;102745.84;;;16.24;46.28
62126;BME280;48112;53.282;6.150;2023-04-05T01:04:31;102736.09;;;16.23;46.26
62126;BME280;48112;53.282;6.150;2023-04-05T01:05:34;102735.28;;;16.22;46.12
62126;BME280;48112;53.282;6.150;2023-04-05T01:06:41;102734.50;;;16.22;46.17
62126;BME280;48112;53.282;6.150;2023-04-05T01:07:45;102738.81;;;16.23;46.11
62126;BME280;48112;53.282;6.150;2023-04-05T01:08:54;102740.72;;;16.22;46.38
62126;BME280;48112;53.282;6.150;2023-04-05T01:10:01;102737.22;;;16.22;46.22
62126;BME280;48112;53.282;6.150;2023-04-05T01:11:06;102736.41;;;16.21;46.16
62126;BME280;48112;53.282;6.150;2023-04-05T01:12:09;102735.59;;;16.21;46.41
62126;BME280;48112;53.282;6.150;2023-04-05T01:13:14;102733.69;;;16.21;46.36
62126;BME280;48112;53.282;6.150;2023-04-05T01:14:17;102733.69;;;16.21;46.36
62126;BME280;48112;53.282;6.150;2023-04-05T01:15:19;102732.88;;;16.21;46.31
62126;BME280;48112;53.282;6.150;2023-04-05T01:16:21;102724.72;;;16.21;46.23
62126;BME280;48112;53.282;6.150;2023-04-05T01:17:24;102732.88;;;16.21;46.24
62126;BME280;48112;53.282;6.150;2023-04-05T01:18:28;102723.94;;;16.20;46.29
62126;BME280;48112;53.282;6.150;2023-04-05T01:19:33;102729.38;;;16.20;46.39
62126;BME280;48112;53.282;6.150;2023-04-05T01:20:36;102732.09;;;16.20;46.11
62126;BME280;48112;53.282;6.150;2023-04-05T01:21:54;102719.59;;;16.19;46.35
62126;BME280;48112;53.282;6.150;2023-04-05T01:23:25;102725.84;;;16.20;46.19
62126;BME280;48112;53.282;6.150;2023-04-05T01:24:34;102730.50;;;16.19;46.24
62126;BME280;48112;53.282;6.150;2023-04-05T01:26:00;102724.22;;;16.19;46.39
62126;BME280;48112;53.282;6.150;2023-04-05T01:27:07;102718.00;;;16.18;46.10
62126;BME280;48112;53.282;6.150;2023-04-05T01:28:17;102720.72;;;16.18;46.11
62126;BME280;48112;53.282;6.150;2023-04-05T01:29:28;102730.00;;;16.17;46.39
62126;BME280;48112;53.282;6.150;2023-04-05T01:30:36;102719.91;;;16.18;46.19
62126;BME280;48112;53.282;6.150;2023-04-05T01:31:41;102719.13;;;16.17;46.22
62126;BME280;48112;53.282;6.150;2023-04-05T01:32:49;102715.28;;;16.18;46.26
62126;BME280;48112;53.282;6.150;2023-04-05T01:33:54;102712.09;;;16.16;46.35
62126;BME280;48112;53.282;6.150;2023-04-05T01:35:00;102710.16;;;16.17;46.24
62126;BME280;48112;53.282;6.150;2023-04-05T01:36:07;102714.47;;;16.18;46.27
62126;BME280;48112;53.282;6.150;2023-04-05T01:37:14;102713.66;;;16.17;46.34
62126;BME280;48112;53.282;6.150;2023-04-05T01:38:21;102716.38;;;16.17;46.14
62126;BME280;48112;53.282;6.150;2023-04-05T01:39:23;102717.53;;;16.16;46.23
62126;BME280;48112;53.282;6.150;2023-04-05T01:40:27;102712.88;;;16.17;46.10
62126;BME280;48112;53.282;6.150;2023-04-05T01:41:28;102717.53;;;16.16;46.18
62126;BME280;48112;53.282;6.150;2023-04-05T01:42:31;102712.09;;;16.16;46.17
62126;BME280;48112;53.282;6.150;2023-04-05T01:43:33;102712.09;;;16.16;46.14
62126;BME280;48112;53.282;6.150;2023-04-05T01:44:37;102713.22;;;16.15;46.34
62126;BME280;48112;53.282;6.150;2023-04-05T01:45:40;102706.16;;;16.14;46.30
62126;BME280;48112;53.282;6.150;2023-04-05T01:46:43;102705.03;;;16.15;46.19
62126;BME280;48112;53.282;6.150;2023-04-05T01:47:46;102713.22;;;16.15;46.24
62126;BME280;48112;53.282;6.150;2023-04-05T01:48:52;102708.56;;;16.16;46.11
62126;BME280;48112;53.282;6.150;2023-04-05T01:49:54;102705.81;;;16.16;46.28
62126;BME280;48112;53.282;6.150;2023-04-05T01:50:59;102708.88;;;16.14;46.37
62126;BME280;48112;53.282;6.150;2023-04-05T01:52:01;102708.88;;;16.14;46.15
62126;BME280;48112;53.282;6.150;2023-04-05T01:53:03;102703.44;;;16.14;46.32
62126;BME280;48112;53.282;6.150;2023-04-05T01:54:05;102701.84;;;16.13;46.10
62126;BME280;48112;53.282;6.150;2023-04-05T01:55:09;102712.75;;;16.13;46.31
62126;BME280;48112;53.282;6.150;2023-04-05T01:56:10;102703.44;;;16.14;46.19
62126;BME280;48112;53.282;6.150;2023-04-05T01:57:13;102697.97;;;16.14;46.20
62126;BME280;48112;53.282;6.150;2023-04-05T01:58:15;102707.31;;;16.13;46.35
62126;BME280;48112;53.282;6.150;2023-04-05T01:59:17;102702.66;;;16.14;46.13
62126;BME280;48112;53.282;6.150;2023-04-05T02:00:21;102694.81;;;16.12;46.18
62126;BME280;48112;53.282;6.150;2023-04-05T02:01:24;102700.25;;;16.12;46.10
62126;BME280;48112;53.282;6.150;2023-04-05T02:02:26;102695.59;;;16.13;46.25
62126;BME280;48112;53.282;6.150;2023-04-05T02:03:29;102694.81;;;16.12;46.17
62126;BME280;48112;53.282;6.150;2023-04-05T02:04:31;102694.81;;;16.12;46.16
62126;BME280;48112;53.282;6.150;2023-04-05T02:05:33;102694.81;;;16.12;46.13
62126;BME280;48112;53.282;6.150;2023-04-05T02:06:36;102685.03;;;16.11;46.30
62126;BME280;48112;53.282;6.150;2023-04-05T02:07:40;102689.38;;;16.12;46.41
62126;BME280;48112;53.282;6.150;2023-04-05T02:08:43;102690.47;;;16.11;46.25
62126;BME280;48112;53.282;6.150;2023-04-05T02:09:46;102692.09;;;16.12;45.95
62126;BME280;48112;53.282;6.150;2023-04-05T02:10:48;102691.28;;;16.12;46.39
62126;BME280;48112;53.282;6.150;2023-04-05T02:11:50;102687.75;;;16.11;46.06
62126;BME280;48112;53.282;6.150;2023-04-05T02:12:52;102685.03;;;16.11;46.22
62126;BME280;48112;53.282;6.150;2023-04-05T02:13:55;102685.03;;;16.11;45.97
62126;BME280;48112;53.282;6.150;2023-04-05T02:14:57;102686.16;;;16.10;46.26
62126;BME280;48112;53.282;6.150;2023-04-05T02:16:01;102675.25;;;16.10;46.28
62126;BME280;48112;53.282;6.150;2023-04-05T02:17:03;102687.75;;;16.11;46.04
62126;BME280;48112;53.282;6.150;2023-04-05T02:18:06;102681.53;;;16.11;46.13
62126;BME280;48112;53.282;6.150;2023-04-05T02:19:08;102686.97;;;16.11;46.32
62126;BME280;48112;53.282;6.150;2023-04-05T02:20:11;102688.88;;;16.10;46.37
62126;BME280;48112;53.282;6.150;2023-04-05T02:21:14;102686.97;;;16.11;46.25
62126;BME280;48112;53.282;6.150;2023-04-05T02:22:17;102685.34;;;16.10;46.07
62126;BME280;48112;53.282;6.150;2023-04-05T02:23:19;102679.91;;;16.10;46.17
62126;BME280;48112;53.282;6.150;2023-04-05T02:24:21;102679.91;;;16.10;46.22
62126;BME280;48112;53.282;6.150;2023-04-05T02:25:23;102675.59;;;16.09;46.34
62126;BME280;48112;53.282;6.150;2023-04-05T02:26:26;102673.66;;;16.09;46.29
62126;BME280;48112;53.282;6.150;2023-04-05T02:27:27;102679.09;;;16.09;46.08
62126;BME280;48112;53.282;6.150;2023-04-05T02:28:30;102675.59;;;16.09;45.99
62126;BME280;48112;53.282;6.150;2023-04-05T02:29:32;102677.53;;;16.08;46.32
62126;BME280;48112;53.282;6.150;2023-04-05T02:30:35;102680.25;;;16.08;46.02
62126;BME280;48112;53.282;6.150;2023-04-05T02:31:38;102666.63;;;16.08;46.08
62126;BME280;48112;53.282;6.150;2023-04-05T02:32:41;102665.03;;;16.07;45.99
62126;BME280;48112;53.282;6.150;2023-04-05T02:33:43;102667.75;;;16.07;45.94
62126;BME280;48112;53.282;6.150;2023-04-05T02:34:45;102659.13;;;16.05;46.00
62126;BME280;48112;53.282;6.150;2023-04-05T02:35:47;102674.00;;;16.08;46.03
62126;BME280;48112;53.282;6.150;2023-04-05T02:36:51;102670.47;;;16.07;46.05
62126;BME280;48112;53.282;6.150;2023-04-05T02:37:53;102671.25;;;16.08;46.09
62126;BME280;48112;53.282;6.150;2023-04-05T02:38:57;102665.03;;;16.07;46.23
62126;BME280;48112;53.282;6.150;2023-04-05T02:39:58;102675.13;;;16.07;45.99
62126;BME280;48112;53.282;6.150;2023-04-05T02:41:01;102666.94;;;16.07;46.00
62126;BME280;48112;53.282;6.150;2023-04-05T02:42:04;102675.94;;;16.07;46.11
62126;BME280;48112;53.282;6.150;2023-04-05T02:43:07;102664.22;;;16.07;46.16
62126;BME280;48112;53.282;6.150;2023-04-05T02:44:08;102668.09;;;16.06;46.05
62126;BME280;48112;53.282;6.150;2023-04-05T02:45:11;102663.41;;;16.06;46.12
62126;BME280;48112;53.282;6.150;2023-04-05T02:46:13;102663.41;;;16.06;46.05
62126;BME280;48112;53.282;6.150;2023-04-05T02:47:18;102667.28;;;16.05;46.34
62126;BME280;48112;53.282;6.150;2023-04-05T02:48:27;102661.84;;;16.05;45.94
62126;BME280;48112;53.282;6.150;2023-04-05T02:49:29;102671.16;;;16.04;46.04
62126;BME280;48112;53.282;6.150;2023-04-05T02:50:34;102671.16;;;16.04;46.09
62126;BME280;48112;53.282;6.150;2023-04-05T02:51:36;102665.72;;;16.04;46.16
62126;BME280;48112;53.282;6.150;2023-04-05T02:52:42;102669.22;;;16.05;46.04
62126;BME280;48112;53.282;6.150;2023-04-05T02:53:44;102663.75;;;16.05;46.01
62126;BME280;48112;53.282;6.150;2023-04-05T02:54:48;102666.47;;;16.05;46.24
62126;BME280;48112;53.282;6.150;2023-04-05T02:55:57;102660.25;;;16.04;45.97
62126;BME280;48112;53.282;6.150;2023-04-05T02:57:01;102661.38;;;16.03;45.87
62126;BME280;48112;53.282;6.150;2023-04-05T02:58:14;102659.44;;;16.04;45.99
62126;BME280;48112;53.282;6.150;2023-04-05T02:59:19;102658.63;;;16.03;46.20
62126;BME280;48112;53.282;6.150;2023-04-05T03:00:22;102665.72;;;16.04;45.94
62126;BME280;48112;53.282;6.150;2023-04-05T03:01:26;102658.63;;;16.03;46.06
62126;BME280;48112;53.282;6.150;2023-04-05T03:02:31;102657.88;;;16.03;46.12
62126;BME280;48112;53.282;6.150;2023-04-05T03:03:34;102663.31;;;16.03;45.92
62126;BME280;48112;53.282;6.150;2023-04-05T03:04:38;102662.50;;;16.02;45.96
62126;BME280;48112;53.282;6.150;2023-04-05T03:05:41;102668.75;;;16.03;45.89
62126;BME280;48112;53.282;6.150;2023-04-05T03:06:47;102660.59;;;16.03;46.03
62126;BME280;48112;53.282;6.150;2023-04-05T03:07:52;102655.47;;;16.01;46.04
62126;BME280;48112;53.282;6.150;2023-04-05T03:09:00;102660.94;;;16.01;45.99
62126;BME280;48112;53.282;6.150;2023-04-05T03:10:05;102658.19;;;16.01;46.20
62126;BME280;48112;53.282;6.150;2023-04-05T03:11:11;102658.97;;;16.02;46.20
62126;BME280;48112;53.282;6.150;2023-04-05T03:12:16;102650.03;;;16.01;46.11
62126;BME280;48112;53.282;6.150;2023-04-05T03:13:19;102649.22;;;16.01;46.08
62126;BME280;48112;53.282;6.150;2023-04-05T03:14:22;102660.94;;;16.01;46.16
62126;BME280;48112;53.282;6.150;2023-04-05T03:15:25;102657.41;;;16.01;45.87
62126;BME280;48112;53.282;6.150;2023-04-05T03:16:30;102655.47;;;16.01;46.10
62126;BME280;48112;53.282;6.150;2023-04-05T03:17:38;102651.13;;;16.00;46.16
62126;BME280;48112;53.282;6.150;2023-04-05T03:18:39;102645.69;;;16.00;45.96
62126;BME280;48112;53.282;6.150;2023-04-05T03:19:44;102653.88;;;16.00;46.03
62126;BME280;48112;53.282;6.150;2023-04-05T03:20:54;102642.97;;;16.00;46.04
62126;BME280;48112;53.282;6.150;2023-04-05T03:21:58;102651.94;;;16.01;45.87
62126;BME280;48112;53.282;6.150;2023-04-05T03:23:05;102647.59;;;16.00;46.13
62126;BME280;48112;53.282;6.150;2023-04-05T03:24:09;102653.06;;;16.00;45.91
62126;BME280;48112;53.282;6.150;2023-04-05T03:25:14;102653.06;;;16.00;45.96
62126;BME280;48112;53.282;6.150;2023-04-05T03:26:21;102650.66;;;15.98;45.91
62126;BME280;48112;53.282;6.150;2023-04-05T03:27:26;102646.81;;;15.99;45.82
62126;BME280;48112;53.282;6.150;2023-04-05T03:28:58;102650.66;;;15.98;45.90
62126;BME280;48112;53.282;6.150;2023-04-05T03:30:06;102645.22;;;15.98;45.98
62126;BME280;48112;53.282;6.150;2023-04-05T03:31:13;102649.88;;;15.98;45.86
62126;BME280;48112;53.282;6.150;2023-04-05T03:32:16;102647.94;;;15.98;46.03
62126;BME280;48112;53.282;6.150;2023-04-05T03:33:26;102649.09;;;15.97;45.96
62126;BME280;48112;53.282;6.150;2023-04-05T03:34:29;102650.66;;;15.98;45.94
62126;BME280;48112;53.282;6.150;2023-04-05T03:35:36;102643.63;;;15.97;46.11
62126;BME280;48112;53.282;6.150;2023-04-05T03:36:41;102643.63;;;15.97;45.90
62126;BME280;48112;53.282;6.150;2023-04-05T03:37:57;102639.31;;;15.96;45.99
62126;BME280;48112;53.282;6.150;2023-04-05T03:38:59;102645.22;;;15.98;45.98
62126;BME280;48112;53.282;6.150;2023-04-05T03:40:01;102638.19;;;15.97;46.09
62126;BME280;48112;53.282;6.150;2023-04-05T03:41:05;102643.63;;;15.97;45.95
62126;BME280;48112;53.282;6.150;2023-04-05T03:42:09;102640.91;;;15.97;45.95
62126;BME280;48112;53.282;6.150;2023-04-05T03:43:11;102631.94;;;15.97;45.85
62126;BME280;48112;53.282;6.150;2023-04-05T03:44:13;102639.31;;;15.96;46.05
62126;BME280;48112;53.282;6.150;2023-04-05T03:45:15;102638.19;;;15.97;46.15
62126;BME280;48112;53.282;6.150;2023-04-05T03:46:23;102641.25;;;15.96;45.90
62126;BME280;48112;53.282;6.150;2023-04-05T03:47:25;102635.78;;;15.96;45.71
62126;BME280;48112;53.282;6.150;2023-04-05T03:48:29;102624.91;;;15.96;45.92
62126;BME280;48112;53.282;6.150;2023-04-05T03:49:31;102635.78;;;15.96;45.91
62126;BME280;48112;53.282;6.150;2023-04-05T03:50:33;102629.53;;;15.95;45.86
62126;BME280;48112;53.282;6.150;2023-04-05T03:51:35;102629.53;;;15.95;45.81
62126;BME280;48112;53.282;6.150;2023-04-05T03:52:38;102629.53;;;15.95;45.98
62126;BME280;48112;53.282;6.150;2023-04-05T03:53:40;102629.53;;;15.95;45.96
62126;BME280;48112;53.282;6.150;2023-04-05T03:54:42;102629.53;;;15.95;46.02
62126;BME280;48112;53.282;6.150;2023-04-05T03:55:45;102624.09;;;15.95;46.03
62126;BME280;48112;53.282;6.150;2023-04-05T03:56:52;102623.31;;;15.95;45.92
62126;BME280;48112;53.282;6.150;2023-04-05T03:57:54;102622.50;;;15.94;46.02
62126;BME280;48112;53.282;6.150;2023-04-05T03:59:02;102623.31;;;15.95;45.91
62126;BME280;48112;53.282;6.150;2023-04-05T04:00:05;102627.97;;;15.94;45.79
62126;BME280;48112;53.282;6.150;2023-04-05T04:01:15;102625.22;;;15.94;45.92
62126;BME280;48112;53.282;6.150;2023-04-05T04:02:17;102630.69;;;15.94;45.72
62126;BME280;48112;53.282;6.150;2023-04-05T04:03:19;102622.50;;;15.94;45.84
62126;BME280;48112;53.282;6.150;2023-04-05T04:04:25;102626.38;;;15.93;45.85
62126;BME280;48112;53.282;6.150;2023-04-05T04:05:29;102626.38;;;15.93;46.05
62126;BME280;48112;53.282;6.150;2023-04-05T04:06:32;102617.41;;;15.93;46.05
62126;BME280;48112;53.282;6.150;2023-04-05T04:07:36;102624.75;;;15.92;46.03
62126;BME280;48112;53.282;6.150;2023-04-05T04:08:38;102626.38;;;15.93;45.75
62126;BME280;48112;53.282;6.150;2023-04-05T04:09:41;102619.31;;;15.92;45.83
62126;BME280;48112;53.282;6.150;2023-04-05T04:10:44;102620.91;;;15.93;45.86
62126;BME280;48112;53.282;6.150;2023-04-05T04:11:58;102619.31;;;15.92;45.86
62126;BME280;48112;53.282;6.150;2023-04-05T04:13:00;102612.75;;;15.93;45.72
62126;BME280;48112;53.282;6.150;2023-04-05T04:14:06;102616.59;;;15.92;46.00
62126;BME280;48112;53.282;6.150;2023-04-05T04:15:31;102620.13;;;15.93;45.74
62126;BME280;48112;53.282;6.150;2023-04-05T04:16:54;102615.81;;;15.92;45.82
62126;BME280;48112;53.282;6.150;2023-04-05T04:18:18;102617.72;;;15.91;45.74
62126;BME280;48112;53.282;6.150;2023-04-05T04:19:41;102612.28;;;15.91;45.87
62126;BME280;48112;53.282;6.150;2023-04-05T04:21:09;102617.72;;;15.91;45.75
62126;BME280;48112;53.282;6.150;2023-04-05T04:22:42;102616.91;;;15.91;45.96
62126;BME280;48112;53.282;6.150;2023-04-05T04:24:04;102616.91;;;15.91;45.87
62126;BME280;48112;53.282;6.150;2023-04-05T04:25:26;102615.34;;;15.90;45.91
62126;BME280;48112;53.282;6.150;2023-04-05T04:26:49;102616.13;;;15.90;45.83
62126;BME280;48112;53.282;6.150;2023-04-05T04:28:04;102620.78;;;15.90;45.99
62126;BME280;48112;53.282;6.150;2023-04-05T04:29:19;102622.69;;;15.89;45.86
62126;BME280;48112;53.282;6.150;2023-04-05T04:30:45;102618.41;;;15.88;45.86
62126;BME280;48112;53.282;6.150;2023-04-05T04:32:01;102614.53;;;15.89;45.88
62126;BME280;48112;53.282;6.150;2023-04-05T04:33:20;102612.94;;;15.88;46.03
62126;BME280;48112;53.282;6.150;2023-04-05T04:34:47;102614.53;;;15.89;45.86
62126;BME280;48112;53.282;6.150;2023-04-05T04:36:11;102619.16;;;15.89;45.87
62126;BME280;48112;53.282;6.150;2023-04-05T04:37:46;102617.59;;;15.88;45.92
62126;BME280;48112;53.282;6.150;2023-04-05T04:39:15;102612.13;;;15.88;45.74
62126;BME280;48112;53.282;6.150;2023-04-05T04:40:38;102608.59;;;15.87;45.78
62126;BME280;48112;53.282;6.150;2023-04-05T04:42:06;102614.88;;;15.88;46.00
62126;BME280;48112;53.282;6.150;2023-04-05T04:43:39;102608.59;;;15.87;45.83
62126;BME280;48112;53.282;6.150;2023-04-05T04:44:52;102614.06;;;15.87;45.99
62126;BME280;48112;53.282;6.150;2023-04-05T04:46:18;102622.22;;;15.87;45.89
62126;BME280;48112;53.282;6.150;2023-04-05T04:47:37;102615.66;;;15.88;45.89
62126;BME280;48112;53.282;6.150;2023-04-05T04:48:51;102624.63;;;15.89;46.02
62126;BME280;48112;53.282;6.150;2023-04-05T04:50:07;102620.31;;;15.88;46.20
62126;BME280;48112;53.282;6.150;2023-04-05T04:51:09;102610.22;;;15.88;46.47
62126;BME280;48112;53.282;6.150;2023-04-05T04:52:12;102619.16;;;15.89;46.67
62126;BME280;48112;53.282;6.150;2023-04-05T04:53:15;102614.53;;;15.89;46.71
62126;BME280;48112;53.282;6.150;2023-04-05T04:54:19;102612.94;;;15.88;46.61
62126;BME280;48112;53.282;6.150;2023-04-05T04:55:22;102614.53;;;15.89;46.72
62126;BME280;48112;53.282;6.150;2023-04-05T04:56:25;102615.66;;;15.88;46.88
62126;BME280;48112;53.282;6.150;2023-04-05T04:57:30;102612.94;;;15.88;46.87
62126;BME280;48112;53.282;6.150;2023-04-05T04:58:31;102612.13;;;15.88;46.93
62126;BME280;48112;53.282;6.150;2023-04-05T04:59:38;102614.06;;;15.87;46.80
62126;BME280;48112;53.282;6.150;2023-04-05T05:00:41;102613.72;;;15.89;46.83
62126;BME280;48112;53.282;6.150;2023-04-05T05:01:44;102614.06;;;15.87;47.02
62126;BME280;48112;53.282;6.150;2023-04-05T05:02:46;102614.06;;;15.87;46.90
62126;BME280;48112;53.282;6.150;2023-04-05T05:03:50;102622.22;;;15.87;46.97
62126;BME280;48112;53.282;6.150;2023-04-05T05:04:59;102617.91;;;15.86;46.73
62126;BME280;48112;53.282;6.150;2023-04-05T05:06:03;102614.88;;;15.88;46.79
62126;BME280;48112;53.282;6.150;2023-04-05T05:07:07;102614.53;;;15.89;47.18
62126;BME280;48112;53.282;6.150;2023-04-05T05:08:11;102602.50;;;15.90;47.79
62126;BME280;48112;53.282;6.150;2023-04-05T05:09:14;102608.41;;;15.92;47.70
62126;BME280;48112;53.282;6.150;2023-04-05T05:10:26;102600.72;;;15.94;48.30
62126;BME280;48112;53.282;6.150;2023-04-05T05:11:33;102601.19;;;15.96;48.35
62126;BME280;48112;53.282;6.150;2023-04-05T05:12:39;102601.97;;;15.97;48.16
62126;BME280;48112;53.282;6.150;2023-04-05T05:13:43;102603.91;;;15.96;48.26
62126;BME280;48112;53.282;6.150;2023-04-05T05:14:55;102597.66;;;15.96;48.27
62126;BME280;48112;53.282;6.150;2023-04-05T05:15:58;102607.75;;;15.95;48.20
62126;BME280;48112;53.282;6.150;2023-04-05T05:17:02;102596.84;;;15.95;48.25
62126;BME280;48112;53.282;6.150;2023-04-05T05:18:05;102599.56;;;15.95;48.09
62126;BME280;48112;53.282;6.150;2023-04-05T05:19:09;102597.19;;;15.94;48.10
62126;BME280;48112;53.282;6.150;2023-04-05T05:20:23;102606.16;;;15.94;48.28
62126;BME280;48112;53.282;6.150;2023-04-05T05:21:30;102604.56;;;15.93;48.07
62126;BME280;48112;53.282;6.150;2023-04-05T05:22:34;102602.97;;;15.92;48.10
62126;BME280;48112;53.282;6.150;2023-04-05T05:23:37;102599.13;;;15.93;48.13
62126;BME280;48112;53.282;6.150;2023-04-05T05:24:39;102595.94;;;15.91;48.09
62126;BME280;48112;53.282;6.150;2023-04-05T05:25:41;102595.94;;;15.91;47.90
62126;BME280;48112;53.282;6.150;2023-04-05T05:26:43;102599.78;;;15.90;48.10
62126;BME280;48112;53.282;6.150;2023-04-05T05:27:47;102594.31;;;15.90;48.08
62126;BME280;48112;53.282;6.150;2023-04-05T05:28:48;102599.00;;;15.90;47.94
62126;BME280;48112;53.282;6.150;2023-04-05T05:29:51;102600.91;;;15.89;47.84
62126;BME280;48112;53.282;6.150;2023-04-05T05:30:53;102598.19;;;15.89;47.81
62126;BME280;48112;53.282;6.150;2023-04-05T05:31:56;102596.28;;;15.90;47.84
62126;BME280;48112;53.282;6.150;2023-04-05T05:32:57;102591.16;;;15.88;47.83
62126;BME280;48112;53.282;6.150;2023-04-05T05:34:00;102585.72;;;15.88;47.83
62126;BME280;48112;53.282;6.150;2023-04-05T05:35:02;102599.31;;;15.88;47.79
62126;BME280;48112;53.282;6.150;2023-04-05T05:36:05;102589.53;;;15.87;47.94
62126;BME280;48112;53.282;6.150;2023-04-05T05:37:08;102593.88;;;15.88;47.74
62126;BME280;48112;53.282;6.150;2023-04-05T05:38:11;102596.13;;;15.86;47.73
62126;BME280;48112;53.282;6.150;2023-04-05T05:39:14;102598.84;;;15.86;47.67
62126;BME280;48112;53.282;6.150;2023-04-05T05:40:16;102596.94;;;15.87;47.86
62126;BME280;48112;53.282;6.150;2023-04-05T05:41:19;102598.84;;;15.86;47.52
62126;BME280;48112;53.282;6.150;2023-04-05T05:42:22;102587.97;;;15.86;47.87
62126;BME280;48112;53.282;6.150;2023-04-05T05:43:24;102590.22;;;15.84;47.57